Terminal Aerodrome Forecast
Issued by NWS Charleston, WV

Home | Current Version | Previous Version | Text Only | Print | Product List | Glossary On
Versions: 1 2 3 4 5 6 7 8 9 10 11 12 13 14 15 16 17 18 19 20 21 22 23
000
FTUS41 KRLX 281514 AAB
TAFEKN
TAF AMD
KEKN 281514Z 2815/2912 00000KT P6SM SCT045
     FM281700 00000KT P6SM VCTS BKN045CB
     FM282200 00000KT P6SM BKN045
     FM290200 00000KT 4SM BR SCT035
     FM290700 00000KT 1SM BR SCT001 SCT035
     FM290800 00000KT 1/2SM FG VV001
     FM291100 00000KT 2SM BR SCT045=

USA.gov is the U.S. government's official web portal to all federal, state and local government web resources and services.